Time;durP1;ratioP1;P1;durP2;ratioP2;P2;SDS_P1;SDS_P2;PMS_P1;PMS_P2;Temp;Humidity;BMP_temperature;BMP_pressure;BME280_temperature;BME280_humidity;BME280_pressure;Samples;Min_cycle;Max_cycle;Signal;HPM_P1;HPM_P2
2021/01/05 00:02:39;;;;;;;;;46.40;35.00;;;;;11.61;51.66;98282.81;6161014;28;128171;-58
2021/01/05 00:05:42;;;;;;;;;47.20;36.60;;;;;11.70;51.70;98289.44;6160683;28;124434;-58
2021/01/05 00:08:43;;;;;;;;;46.75;36.00;;;;;11.72;51.61;98295.44;6161209;28;125207;-58
2021/01/05 00:12:05;;;;;;;;;44.25;35.00;;;;;11.72;51.50;98284.63;6161096;28;126476;-58
2021/01/05 00:15:10;;;;;;;;;46.00;36.00;;;;;11.71;51.55;98285.69;6161166;28;127593;-58
2021/01/05 00:18:11;;;;;;;;;48.00;38.00;;;;;11.74;51.58;98282.53;6161235;28;126156;-58
2021/01/05 00:21:12;;;;;;;;;44.80;35.00;;;;;11.54;51.49;98249.75;6156285;28;127832;-58
2021/01/05 00:24:14;;;;;;;;;40.40;33.00;;;;;11.47;51.47;98239.13;6144314;28;124668;-58
2021/01/05 00:27:15;;;;;;;;;42.80;35.00;;;;;11.75;51.51;98277.94;6159981;28;127611;-58
2021/01/05 00:30:20;;;;;;;;;43.40;33.00;;;;;11.51;51.38;98244.84;6160773;28;128421;-58
2021/01/05 00:33:22;;;;;;;;;45.00;32.20;;;;;11.69;51.46;98288.63;6160499;28;125778;-58
2021/01/05 00:36:24;;;;;;;;;42.00;34.00;;;;;11.64;51.34;98272.34;6145209;28;124240;-58
2021/01/05 00:39:25;;;;;;;;;35.00;29.00;;;;;11.78;51.13;98270.16;6160694;28;125761;-58
2021/01/05 00:42:26;;;;;;;;;40.60;33.00;;;;;11.77;51.37;98290.16;6160210;28;126775;-58
2021/01/05 00:45:34;;;;;;;;;40.80;33.80;;;;;11.78;51.24;98288.28;6160491;28;125392;-58
2021/01/05 00:48:35;;;;;;;;;39.00;32.00;;;;;11.78;51.38;98274.78;6160271;28;125876;-58
2021/01/05 00:51:37;;;;;;;;;37.00;30.00;;;;;11.80;51.03;98270.75;6127238;28;125844;-58
2021/01/05 00:54:39;;;;;;;;;37.60;30.00;;;;;11.81;51.12;98275.09;6153899;28;125297;-58
2021/01/05 00:57:42;;;;;;;;;30.80;27.80;;;;;11.82;50.86;98270.53;6159559;28;125343;-59
2021/01/05 01:00:43;;;;;;;;;30.60;28.60;;;;;11.83;51.02;98261.34;6153652;28;127105;-58
2021/01/05 01:03:49;;;;;;;;;35.60;30.00;;;;;11.62;50.94;98222.38;6144412;28;125227;-59
2021/01/05 01:06:52;;;;;;;;;27.00;24.00;;;;;11.89;50.88;98271.16;6160197;28;125993;-59
2021/01/05 01:09:53;;;;;;;;;29.00;26.20;;;;;11.91;50.81;98261.78;6157176;28;127218;-59
2021/01/05 01:12:56;;;;;;;;;31.75;27.00;;;;;11.89;50.52;98261.19;6149615;28;127034;-59
2021/01/05 01:16:02;;;;;;;;;30.25;26.00;;;;;11.67;50.56;98228.66;6142341;28;124521;-59
2021/01/05 01:19:04;;;;;;;;;33.00;29.00;;;;;11.85;50.50;98256.53;6150166;28;124888;-58
2021/01/05 01:22:07;;;;;;;;;31.60;27.60;;;;;11.87;50.14;98254.41;6126868;28;128431;-59
2021/01/05 01:25:09;;;;;;;;;32.00;30.00;;;;;11.84;50.32;98253.00;6149291;28;126111;-59
2021/01/05 01:28:13;;;;;;;;;27.60;24.60;;;;;11.85;50.45;98246.53;6156107;28;126297;-59
2021/01/05 01:31:20;;;;;;;;;33.75;30.00;;;;;11.80;50.47;98251.84;6152239;28;127243;-58
2021/01/05 01:34:23;;;;;;;;;34.50;27.50;;;;;11.84;50.34;98239.50;6143953;28;128725;-59
2021/01/05 01:37:26;;;;;;;;;33.60;30.00;;;;;11.83;50.40;98234.31;6143425;28;127001;-59
2021/01/05 01:40:40;;;;;;;;;30.60;26.60;;;;;11.85;50.41;98232.22;6153577;28;124553;-59
2021/01/05 01:43:49;;;;;;;;;34.60;29.80;;;;;11.87;50.22;98227.41;6158917;28;127548;-59
2021/01/05 01:47:00;;;;;;;;;34.00;30.00;;;;;11.91;50.22;98226.66;6134128;28;126021;-59
2021/01/05 01:50:12;;;;;;;;;34.60;27.80;;;;;11.95;50.00;98222.41;6151783;28;126122;-59
2021/01/05 01:53:43;;;;;;;;;30.40;27.80;;;;;11.95;49.72;98222.41;6151298;28;126178;-59
2021/01/05 01:57:01;;;;;;;;;33.40;30.00;;;;;11.98;49.92;98210.25;6147169;28;127878;-59
2021/01/05 02:00:32;;;;;;;;;37.20;32.00;;;;;11.95;49.78;98214.28;6141756;28;124699;-59
2021/01/05 02:04:00;;;;;;;;;37.00;30.00;;;;;11.92;49.62;98208.56;6129363;28;126052;-59
2021/01/05 02:07:39;;;;;;;;;33.60;28.00;;;;;11.91;49.86;98210.44;6149392;28;127145;-59
2021/01/05 02:10:53;;;;;;;;;32.00;28.80;;;;;11.83;49.93;98205.44;6158953;28;127095;-58
2021/01/05 02:14:04;;;;;;;;;34.40;30.00;;;;;11.87;49.79;98205.78;6156565;28;126096;-58
2021/01/05 02:17:37;;;;;;;;;36.20;30.20;;;;;11.86;49.81;98196.88;6141093;28;127334;-58
2021/01/05 02:20:46;;;;;;;;;31.25;29.00;;;;;11.88;49.56;98200.13;6152264;28;123887;-59
2021/01/05 02:24:06;;;;;;;;;34.00;30.00;;;;;11.86;49.70;98191.47;6142285;28;127028;-59
2021/01/05 02:27:11;;;;;;;;;30.00;28.00;;;;;11.83;49.93;98191.94;6148326;28;125993;-59
2021/01/05 02:30:21;;;;;;;;;29.80;28.40;;;;;11.75;49.84;98173.47;6158723;28;125805;-59
2021/01/05 02:33:33;;;;;;;;;32.60;27.80;;;;;11.82;50.04;98184.94;6158368;28;124810;-59
2021/01/05 02:36:44;;;;;;;;;33.60;29.60;;;;;11.79;49.97;98184.56;6133159;28;124497;-58
2021/01/05 02:40:22;;;;;;;;;33.00;30.00;;;;;11.82;49.96;98165.19;6158440;28;125913;-58
2021/01/05 02:43:54;;;;;;;;;29.40;27.80;;;;;11.78;50.03;98162.16;6158041;28;123931;-58
2021/01/05 02:47:41;;;;;;;;;33.60;30.00;;;;;11.77;50.34;98154.31;6151066;28;126196;-58
2021/01/05 02:51:33;;;;;;;;;27.80;25.80;;;;;11.77;50.25;98152.44;6158580;28;127377;-58
2021/01/05 02:55:06;;;;;;;;;36.60;30.00;;;;;11.79;50.33;98150.28;6115118;28;127534;-58
2021/01/05 02:58:42;;;;;;;;;36.40;30.20;;;;;11.81;50.42;98144.66;6150822;28;97292;-58
2021/01/05 03:02:34;;;;;;;;;34.00;30.00;;;;;11.79;50.24;98142.19;6166472;28;127167;-59
2021/01/05 03:06:18;;;;;;;;;33.50;29.50;;;;;11.79;50.21;98141.38;6166057;28;126155;-58
2021/01/05 03:09:49;;;;;;;;;30.00;27.40;;;;;11.79;50.30;98123.28;6166415;28;125242;-59
2021/01/05 03:13:18;;;;;;;;;34.00;27.80;;;;;11.78;50.13;98118.94;6164454;28;124906;-60
2021/01/05 03:16:47;;;;;;;;;27.00;25.00;;;;;11.66;50.29;98102.00;6166517;28;126050;-59
2021/01/05 03:20:19;;;;;;;;;33.40;29.40;;;;;11.72;50.11;98111.84;6150571;28;127770;-59
2021/01/05 03:23:40;;;;;;;;;27.20;25.60;;;;;11.75;49.91;98118.63;6166633;28;124625;-59
2021/01/05 03:27:01;;;;;;;;;29.00;24.25;;;;;11.52;50.28;98077.25;6166216;28;127013;-59
2021/01/05 03:30:24;;;;;;;;;31.25;27.25;;;;;11.72;50.18;98109.13;6156056;28;126262;-59
2021/01/05 03:33:50;;;;;;;;;31.60;28.40;;;;;11.72;50.19;98114.53;6166391;28;127004;-59
2021/01/05 03:37:10;;;;;;;;;26.40;24.60;;;;;11.72;50.13;98109.13;6165936;28;123945;-58
2021/01/05 03:40:30;;;;;;;;;31.00;25.00;;;;;11.74;50.30;98104.31;6166002;28;127991;-58
2021/01/05 03:43:50;;;;;;;;;29.40;25.00;;;;;11.69;50.23;98094.22;6149731;28;125938;-58
2021/01/05 03:47:10;;;;;;;;;30.00;25.25;;;;;11.67;50.13;98090.97;6165527;28;127122;-58
2021/01/05 03:50:30;;;;;;;;;27.00;24.00;;;;;11.68;50.17;98092.59;6165845;28;126030;-58
2021/01/05 03:53:50;;;;;;;;;27.67;24.00;;;;;11.65;50.44;98086.88;6165185;28;124812;-58
2021/01/05 03:57:30;;;;;;;;;26.20;23.60;;;;;11.67;50.38;98085.56;6126918;28;126900;-58
2021/01/05 04:00:51;;;;;;;;;27.00;23.00;;;;;11.64;50.46;98086.06;6125399;28;125846;-58
2021/01/05 04:03:52;;;;;;;;;27.40;25.00;;;;;11.63;50.40;98080.91;6165166;28;126296;-58
2021/01/05 04:06:53;;;;;;;;;22.00;19.00;;;;;11.64;50.46;98071.72;6165422;28;126413;-58
2021/01/05 04:09:55;;;;;;;;;31.20;26.40;;;;;11.64;50.56;98074.44;6164591;28;125714;-58
2021/01/05 04:12:56;;;;;;;;;24.75;22.00;;;;;11.67;50.49;98079.34;6159319;28;126533;-58
2021/01/05 04:15:58;;;;;;;;;26.00;25.00;;;;;11.71;50.33;98067.81;6160873;28;126736;-58
2021/01/05 04:19:00;;;;;;;;;23.50;20.00;;;;;11.70;50.41;98076.16;6160918;28;127657;-58
2021/01/05 04:22:01;;;;;;;;;25.00;22.00;;;;;11.72;50.22;98071.31;6153252;28;127500;-58
2021/01/05 04:25:07;;;;;;;;;23.50;21.00;;;;;11.68;50.36;98060.19;6152576;28;126655;-58
2021/01/05 04:28:08;;;;;;;;;20.50;18.00;;;;;11.68;50.52;98056.66;6144056;28;128203;-58
2021/01/05 04:31:09;;;;;;;;;23.40;20.40;;;;;11.73;50.26;98067.56;6161080;28;125258;-58
2021/01/05 04:34:14;;;;;;;;;23.20;21.00;;;;;11.79;50.09;98069.28;6160727;28;128007;-58
2021/01/05 04:37:15;;;;;;;;;22.00;19.60;;;;;11.79;49.94;98057.66;6160698;28;125961;-58
2021/01/05 04:40:20;;;;;;;;;22.00;20.00;;;;;11.82;50.16;98054.47;6160505;28;126436;-58
2021/01/05 04:43:33;;;;;;;;;22.60;20.80;;;;;11.77;50.18;98060.63;6137764;28;127319;-58
2021/01/05 04:47:21;;;;;;;;;21.20;18.20;;;;;11.77;50.09;98065.22;6148121;28;125039;-59
2021/01/05 04:50:32;;;;;;;;;21.80;19.00;;;;;11.74;50.21;98061.09;6136976;28;127443;-59
2021/01/05 04:53:43;;;;;;;;;21.00;19.00;;;;;11.74;50.30;98063.81;6155794;28;125877;-59
2021/01/05 04:56:52;;;;;;;;;27.20;23.20;;;;;11.76;50.13;98058.16;6149698;28;124652;-59
2021/01/05 05:00:15;;;;;;;;;24.20;22.60;;;;;11.72;50.40;98055.13;6160223;28;126944;-59
2021/01/05 05:03:44;;;;;;;;;27.00;22.25;;;;;11.73;50.32;98064.88;6159760;28;126666;-58
2021/01/05 05:06:51;;;;;;;;;21.00;20.00;;;;;11.77;50.41;98049.00;6159120;28;126601;-58
2021/01/05 05:10:14;;;;;;;;;23.25;21.25;;;;;11.80;50.45;98057.41;6152978;28;126151;-58
2021/01/05 05:13:31;;;;;;;;;21.00;20.40;;;;;11.79;50.41;98049.56;6137135;28;126512;-58
2021/01/05 05:16:56;;;;;;;;;23.00;20.00;;;;;11.83;50.54;98053.38;6160221;28;126327;-58
2021/01/05 05:20:33;;;;;;;;;21.00;19.60;;;;;11.53;50.38;98005.97;6157304;28;127064;-58
2021/01/05 05:23:40;;;;;;;;;20.50;18.75;;;;;11.83;50.48;98048.00;6159609;28;125989;-59
2021/01/05 05:27:10;;;;;;;;;18.00;17.00;;;;;11.86;50.53;98045.63;6159854;28;124783;-59
2021/01/05 05:30:31;;;;;;;;;16.00;16.00;;;;;11.89;50.26;98042.41;6160058;28;127258;-59
2021/01/05 05:33:38;;;;;;;;;19.25;19.00;;;;;11.86;50.58;98037.53;6159531;28;125935;-58
2021/01/05 05:36:56;;;;;;;;;20.25;18.00;;;;;11.89;50.78;98038.88;6159597;28;126615;-59
2021/01/05 05:40:15;;;;;;;;;22.00;21.00;;;;;11.93;50.38;98043.53;6152350;28;127105;-59
2021/01/05 05:43:38;;;;;;;;;18.80;18.20;;;;;11.94;50.39;98047.88;6155310;28;125915;-59
2021/01/05 05:46:45;;;;;;;;;18.75;17.75;;;;;11.96;49.92;98044.94;6148322;28;127367;-59
2021/01/05 05:49:55;;;;;;;;;16.33;15.00;;;;;11.95;50.36;98038.72;6159597;28;124754;-59
2021/01/05 05:53:19;;;;;;;;;20.00;18.00;;;;;11.73;50.27;97997.38;6160013;28;126047;-58
2021/01/05 05:57:03;;;;;;;;;18.40;17.00;;;;;11.96;50.24;98034.94;6145017;28;126158;-59
2021/01/05 06:00:31;;;;;;;;;16.00;14.00;;;;;11.92;50.53;98033.81;6158880;28;126392;-57
2021/01/05 06:03:32;;;;;;;;;16.00;14.00;;;;;11.59;50.52;97974.47;6149951;28;126382;-59
2021/01/05 06:06:37;;;;;;;;;11.00;11.00;;;;;11.93;50.65;98029.22;6158844;28;126685;-59
2021/01/05 06:09:39;;;;;;;;;14.20;12.20;;;;;11.67;50.41;97982.97;6155911;28;127204;-59
2021/01/05 06:12:41;;;;;;;;;12.00;11.50;;;;;11.98;50.30;98023.88;6158633;28;126866;-59
2021/01/05 06:15:43;;;;;;;;;11.00;10.40;;;;;11.92;50.24;98016.81;6159235;28;126654;-59
2021/01/05 06:18:44;;;;;;;;;11.60;11.00;;;;;11.92;50.42;98023.03;6158395;28;126785;-59
2021/01/05 06:21:45;;;;;;;;;10.00;9.80;;;;;11.93;50.62;98013.81;6158161;28;126738;-59
2021/01/05 06:24:47;;;;;;;;;10.00;9.50;;;;;11.96;50.47;98018.75;6158840;28;126180;-59
2021/01/05 06:27:49;;;;;;;;;11.00;10.80;;;;;11.98;50.48;98008.50;6158995;28;126690;-59
2021/01/05 06:30:50;;;;;;;;;15.00;12.00;;;;;11.95;50.63;98011.72;6157394;28;127770;-59
2021/01/05 06:33:52;;;;;;;;;14.20;13.20;;;;;11.96;50.96;98023.34;6156478;28;126782;-59
2021/01/05 06:36:56;;;;;;;;;12.00;11.00;;;;;11.98;50.52;98010.38;6155641;28;124890;-59
2021/01/05 06:39:58;;;;;;;;;12.40;12.00;;;;;11.91;50.51;98013.28;6151497;28;128089;-59
2021/01/05 06:43:00;;;;;;;;;12.00;11.00;;;;;12.03;50.18;98010.44;6158530;28;127972;-59
2021/01/05 06:46:01;;;;;;;;;13.60;12.60;;;;;12.04;50.31;98010.19;6157997;28;127575;-59
2021/01/05 06:49:03;;;;;;;;;10.80;9.80;;;;;12.04;50.35;98004.78;6157652;28;126386;-59
2021/01/05 06:52:05;;;;;;;;;11.00;9.00;;;;;12.05;50.33;98005.59;6142508;28;128375;-59
2021/01/05 06:55:07;;;;;;;;;11.00;10.25;;;;;12.03;50.29;98002.34;6158305;28;127043;-59
2021/01/05 06:58:09;;;;;;;;;10.67;9.33;;;;;11.90;50.29;97976.53;6158247;28;126207;-59
2021/01/05 07:01:10;;;;;;;;;10.60;10.00;;;;;12.00;50.25;98003.66;6158153;28;126367;-59
2021/01/05 07:04:11;;;;;;;;;11.00;10.00;;;;;12.03;50.46;98002.34;6157998;28;125625;-59
2021/01/05 07:07:13;;;;;;;;;10.25;9.00;;;;;11.98;50.46;97997.69;6147342;28;126054;-59
2021/01/05 07:10:17;;;;;;;;;9.00;8.40;;;;;12.01;50.29;97999.91;6158252;28;128310;-59
2021/01/05 07:13:18;;;;;;;;;7.80;7.80;;;;;12.06;50.14;97999.97;6158405;28;123672;-59
2021/01/05 07:16:19;;;;;;;;;10.00;9.60;;;;;12.10;49.96;97995.69;6158043;28;128448;-59
2021/01/05 07:19:21;;;;;;;;;8.00;7.00;;;;;12.02;49.85;97974.50;6157936;28;125327;-59
2021/01/05 07:22:22;;;;;;;;;8.00;6.00;;;;;11.94;49.21;97963.31;6142705;28;125316;-59
2021/01/05 07:25:23;;;;;;;;;6.40;5.40;;;;;12.09;49.32;97998.63;6157280;28;125275;-59
2021/01/05 07:28:25;;;;;;;;;5.00;4.80;;;;;12.12;49.50;98003.50;6157267;28;124741;-59
2021/01/05 07:31:27;;;;;;;;;6.00;5.50;;;;;12.12;49.50;97992.69;6153401;28;126760;-59
2021/01/05 07:34:28;;;;;;;;;4.00;4.00;;;;;12.15;49.08;97987.63;6148935;28;127634;-59
2021/01/05 07:37:48;;;;;;;;;4.00;4.00;;;;;12.19;49.28;97990.63;6157193;28;126578;-59
2021/01/05 07:40:50;;;;;;;;;4.00;4.00;;;;;12.17;49.32;97987.34;6157847;28;126928;-59
2021/01/05 07:43:51;;;;;;;;;4.80;4.20;;;;;12.18;49.34;97982.78;6157270;28;127723;-59
2021/01/05 07:46:56;;;;;;;;;4.00;4.00;;;;;12.22;49.21;97984.72;6159123;28;127710;-59
2021/01/05 07:49:58;;;;;;;;;5.00;4.60;;;;;12.14;48.77;97975.19;6152104;28;126010;-59
2021/01/05 07:53:00;;;;;;;;;4.00;3.00;;;;;12.19;48.61;97984.41;6133646;28;127716;-59
2021/01/05 07:56:02;;;;;;;;;3.40;3.40;;;;;11.93;48.78;97935.50;6160665;28;126430;-59
2021/01/05 07:59:03;;;;;;;;;2.60;2.60;;;;;12.18;48.75;97982.78;6161258;28;126552;-59
2021/01/05 08:02:06;;;;;;;;;3.75;3.00;;;;;12.18;48.86;97980.06;6145394;28;125693;-59
2021/01/05 08:05:10;;;;;;;;;6.00;5.00;;;;;12.15;48.68;97979.53;6160883;28;127506;-59
2021/01/05 08:08:11;;;;;;;;;6.40;6.00;;;;;12.14;49.13;97983.28;6161809;28;127017;-59
2021/01/05 08:11:13;;;;;;;;;8.00;7.60;;;;;12.11;49.29;97981.09;6161318;28;125353;-59
2021/01/05 08:14:14;;;;;;;;;5.60;5.00;;;;;12.11;49.53;97983.00;6161102;28;126696;-59
2021/01/05 08:17:16;;;;;;;;;5.00;4.00;;;;;12.09;49.50;98010.25;6161078;28;125180;-60
2021/01/05 08:20:19;;;;;;;;;8.00;7.40;;;;;12.09;49.34;97983.22;6161289;28;128185;-59
2021/01/05 08:23:20;;;;;;;;;6.00;5.00;;;;;12.08;49.65;97987.00;6144630;28;126155;-59
2021/01/05 08:26:22;;;;;;;;;5.00;5.00;;;;;12.06;49.65;97983.75;6150306;28;127805;-59
2021/01/05 08:29:23;;;;;;;;;6.60;5.80;;;;;12.08;49.88;97978.06;6159397;28;127745;-59
2021/01/05 08:32:25;;;;;;;;;7.00;7.00;;;;;12.11;49.59;97977.59;6161085;28;127138;-58
2021/01/05 08:35:27;;;;;;;;;4.00;4.00;;;;;12.10;49.32;97981.34;6158185;28;127198;-59
2021/01/05 08:38:28;;;;;;;;;4.00;3.50;;;;;11.83;49.42;97935.38;6161009;28;127566;-59
2021/01/05 08:41:30;;;;;;;;;3.20;3.20;;;;;12.10;49.03;97975.94;6156928;28;127852;-59
2021/01/05 08:44:31;;;;;;;;;5.00;4.00;;;;;12.06;49.11;97966.72;6160904;28;127932;-59
2021/01/05 08:47:33;;;;;;;;;4.00;4.00;;;;;12.16;49.27;97969.53;6160271;28;126656;-59
2021/01/05 08:50:35;;;;;;;;;4.00;4.00;;;;;12.18;48.78;97971.97;6159479;28;125667;-59
2021/01/05 08:53:36;;;;;;;;;3.00;3.00;;;;;12.18;48.95;97975.47;6159079;28;127159;-59
2021/01/05 08:56:37;;;;;;;;;4.60;4.00;;;;;12.18;48.63;97972.78;6156325;28;124446;-59
2021/01/05 08:59:49;;;;;;;;;2.50;2.50;;;;;12.21;49.05;97964.19;6159547;28;125527;-59
2021/01/05 09:03:29;;;;;;;;;3.00;3.00;;;;;12.26;48.43;97975.06;6159916;28;126820;-59
2021/01/05 09:06:30;;;;;;;;;2.00;2.00;;;;;12.28;48.21;97962.09;6142039;28;126337;-58
2021/01/05 09:09:32;;;;;;;;;3.40;3.40;;;;;12.30;47.41;97961.84;6158718;28;124751;-59
2021/01/05 09:12:35;;;;;;;;;4.00;3.00;;;;;12.34;47.54;97962.94;6159579;28;126016;-59
2021/01/05 09:15:37;;;;;;;;;4.75;3.00;;;;;12.35;47.93;97964.59;6158643;28;125194;-58
2021/01/05 09:18:38;;;;;;;;;3.00;2.00;;;;;12.34;48.19;97968.34;6158866;28;125485;-59
2021/01/05 09:21:40;;;;;;;;;11.80;10.80;;;;;12.27;47.88;97946.13;6159307;28;126817;-59
2021/01/05 09:24:41;;;;;;;;;17.50;15.50;;;;;12.27;47.45;97952.34;6158954;28;127533;-59
2021/01/05 09:27:42;;;;;;;;;22.80;20.00;;;;;12.02;47.85;97958.28;6158936;28;126514;-59
2021/01/05 09:30:48;;;;;;;;;20.60;19.00;;;;;11.83;47.86;97964.28;6158390;28;125500;-58
2021/01/05 09:34:20;;;;;;;;;22.67;21.67;;;;;11.73;48.04;97954.97;6158431;28;125955;-59
2021/01/05 09:37:21;;;;;;;;;23.25;20.25;;;;;11.55;48.44;97944.47;6153545;28;124901;-59
2021/01/05 09:40:22;;;;;;;;;24.00;22.00;;;;;11.45;48.63;97949.75;6157748;28;126869;-60
2021/01/05 09:43:24;;;;;;;;;23.00;21.40;;;;;11.34;48.91;97947.19;6145671;28;125282;-59
2021/01/05 09:46:25;;;;;;;;;22.60;21.00;;;;;11.14;49.47;97943.09;6152017;28;126948;-59
2021/01/05 09:49:28;;;;;;;;;22.00;22.00;;;;;10.83;49.63;97917.59;6157733;28;125534;-59
2021/01/05 09:52:36;;;;;;;;;24.40;22.40;;;;;10.93;49.82;97932.28;6157998;28;125463;-59
2021/01/05 09:55:37;;;;;;;;;24.00;22.00;;;;;10.82;49.72;97934.81;6153842;28;127355;-59
2021/01/05 09:58:39;;;;;;;;;26.25;22.75;;;;;10.67;50.12;97926.50;6160260;28;127809;-59
2021/01/05 10:01:40;;;;;;;;;22.40;22.00;;;;;10.62;50.50;97931.78;6157671;28;127739;-58
2021/01/05 10:04:44;;;;;;;;;25.00;23.00;;;;;10.59;50.41;97929.59;6157079;28;124994;-58
2021/01/05 10:07:46;;;;;;;;;22.00;21.00;;;;;10.64;50.36;97934.25;6157606;28;128030;-58
2021/01/05 10:10:47;;;;;;;;;26.50;25.00;;;;;10.67;50.48;97922.97;6156337;28;125394;-59
2021/01/05 10:13:50;;;;;;;;;26.00;24.40;;;;;10.58;50.65;97927.97;6157245;28;124626;-58
2021/01/05 10:16:55;;;;;;;;;28.00;25.25;;;;;10.56;50.72;97930.06;6157715;28;124947;-59
2021/01/05 10:19:57;;;;;;;;;29.00;25.00;;;;;10.57;51.00;97914.72;6157372;28;126588;-58
2021/01/05 10:22:58;;;;;;;;;27.80;25.80;;;;;10.35;50.75;97899.31;6158051;28;126561;-58
2021/01/05 10:25:59;;;;;;;;;27.50;26.00;;;;;10.62;50.90;97917.50;6157098;28;126786;-59
2021/01/05 10:29:04;;;;;;;;;24.20;23.80;;;;;10.73;50.76;97917.44;6157933;28;126841;-59
2021/01/05 10:32:05;;;;;;;;;25.00;23.00;;;;;10.83;50.76;97912.19;6147570;28;127201;-59
2021/01/05 10:35:07;;;;;;;;;28.00;26.00;;;;;10.88;50.62;97921.41;6157253;28;127161;-59
2021/01/05 10:38:08;;;;;;;;;25.60;24.60;;;;;10.93;50.90;97946.59;6158283;28;127566;-59
2021/01/05 10:41:09;;;;;;;;;29.60;26.00;;;;;10.84;50.58;97899.53;6157369;28;125121;-58
2021/01/05 10:44:13;;;;;;;;;29.40;27.40;;;;;10.95;50.73;97901.28;6157424;28;126539;-60
2021/01/05 10:47:15;;;;;;;;;26.60;24.60;;;;;10.95;50.87;97909.38;6156181;28;125939;-59
2021/01/05 10:50:20;;;;;;;;;28.00;25.60;;;;;11.05;50.57;97914.91;6156652;28;128282;-59
2021/01/05 10:53:24;;;;;;;;;26.00;23.25;;;;;11.08;50.29;97913.63;6155635;28;125914;-60
2021/01/05 10:56:25;;;;;;;;;26.00;24.00;;;;;11.02;50.22;97904.63;6155959;28;126351;-59
2021/01/05 10:59:27;;;;;;;;;31.00;28.00;;;;;11.07;50.58;97902.03;6156536;28;126423;-59
2021/01/05 11:02:29;;;;;;;;;33.25;30.00;;;;;11.05;50.45;97906.84;6154474;28;124846;-58
2021/01/05 11:05:37;;;;;;;;;32.00;30.00;;;;;11.01;50.72;97902.19;6140372;28;127155;-58
2021/01/05 11:08:38;;;;;;;;;31.00;28.60;;;;;11.00;50.83;97903.25;6156453;28;124771;-58
2021/01/05 11:11:39;;;;;;;;;31.00;28.75;;;;;10.71;50.62;97854.03;6157268;28;126713;-58
2021/01/05 11:14:41;;;;;;;;;33.25;29.00;;;;;11.01;50.88;97889.53;6135303;28;127579;-58
2021/01/05 11:17:46;;;;;;;;;34.00;29.50;;;;;10.98;50.86;97894.59;6157998;28;127203;-58
2021/01/05 11:20:48;;;;;;;;;36.00;31.00;;;;;11.01;50.45;97891.41;6158783;28;127073;-58
2021/01/05 11:24:20;;;;;;;;;36.75;31.00;;;;;10.93;50.80;97883.75;6160989;28;126415;-58
2021/01/05 11:27:22;;;;;;;;;30.40;27.40;;;;;10.85;50.47;97893.06;6160209;28;125923;-59
2021/01/05 11:30:24;;;;;;;;;35.20;31.60;;;;;10.79;50.77;97892.19;6161756;28;124664;-59
2021/01/05 11:33:25;;;;;;;;;36.00;31.60;;;;;10.70;50.78;97892.84;6160910;28;125410;-59
2021/01/05 11:36:29;;;;;;;;;39.80;32.20;;;;;10.66;50.73;97889.81;6160898;28;127317;-59
2021/01/05 11:39:31;;;;;;;;;35.60;32.00;;;;;10.45;51.04;97882.50;6161199;28;126346;-59
2021/01/05 11:42:32;;;;;;;;;37.60;32.00;;;;;10.50;51.11;97889.84;6160824;28;125809;-59
2021/01/05 11:45:33;;;;;;;;;38.00;32.20;;;;;10.41;51.08;97886.72;6160422;28;127064;-59
2021/01/05 11:48:35;;;;;;;;;38.50;32.00;;;;;10.39;51.33;97896.94;6159524;28;126672;-59
2021/01/05 11:51:37;;;;;;;;;35.60;32.00;;;;;10.35;51.23;97901.19;6160313;28;126681;-59
2021/01/05 11:54:39;;;;;;;;;37.50;32.00;;;;;10.28;51.27;97893.25;6160738;28;125939;-59
2021/01/05 11:57:43;;;;;;;;;43.00;33.75;;;;;10.22;51.41;97896.09;6156120;28;125078;-58
2021/01/05 12:00:45;;;;;;;;;43.60;35.00;;;;;10.25;51.26;97895.63;6160557;28;126471;-58
2021/01/05 12:03:47;;;;;;;;;41.00;33.00;;;;;10.15;51.29;97893.53;6158915;28;126750;-58
2021/01/05 12:06:51;;;;;;;;;42.00;35.00;;;;;10.13;51.30;97892.94;6148337;28;126460;-58
2021/01/05 12:09:54;;;;;;;;;40.40;33.60;;;;;10.12;51.36;97906.66;6142689;28;125968;-59
2021/01/05 12:12:56;;;;;;;;;41.20;34.00;;;;;10.02;51.46;97901.13;6159946;28;124140;-59
2021/01/05 12:15:57;;;;;;;;;41.80;34.00;;;;;10.05;51.46;97904.13;6134296;28;124303;-58
2021/01/05 12:19:01;;;;;;;;;41.80;35.00;;;;;10.05;51.42;97906.81;6149874;28;125286;-59
2021/01/05 12:22:03;;;;;;;;;44.40;35.00;;;;;9.89;51.58;97894.94;6160218;28;124826;-58
2021/01/05 12:25:05;;;;;;;;;37.80;32.00;;;;;9.96;51.73;97905.59;6142121;28;127253;-58
2021/01/05 12:28:07;;;;;;;;;43.60;35.00;;;;;9.92;51.57;97910.63;6160294;28;125233;-58
2021/01/05 12:31:14;;;;;;;;;40.00;32.33;;;;;9.84;51.64;97910.19;6159078;28;125928;-59
2021/01/05 12:34:21;;;;;;;;;39.20;33.60;;;;;9.77;51.84;97917.59;6159312;28;126667;-58
2021/01/05 12:37:24;;;;;;;;;39.50;33.00;;;;;9.72;51.82;97922.91;6160395;28;127827;-59
2021/01/05 12:40:25;;;;;;;;;41.67;33.00;;;;;9.60;52.10;97912.16;6159127;28;126629;-59
2021/01/05 12:43:27;;;;;;;;;34.75;32.50;;;;;9.74;51.93;97910.00;6160888;28;127640;-59
2021/01/05 12:46:33;;;;;;;;;37.25;32.00;;;;;9.49;51.73;97878.84;6159965;28;126489;-59
2021/01/05 12:49:35;;;;;;;;;34.40;32.00;;;;;9.88;51.24;97939.06;6176286;28;126502;-59
2021/01/05 12:52:42;;;;;;;;;36.60;32.00;;;;;9.87;51.25;97926.66;6159978;28;125304;-59
2021/01/05 12:55:48;;;;;;;;;38.40;33.00;;;;;9.84;51.31;97934.41;6161714;28;125969;-60
2021/01/05 12:58:50;;;;;;;;;38.00;32.75;;;;;9.76;51.47;97929.44;6159637;28;125240;-59
2021/01/05 13:01:54;;;;;;;;;39.40;33.00;;;;;9.79;51.36;97920.84;6158721;28;124907;-59
2021/01/05 13:04:55;;;;;;;;;38.75;32.75;;;;;9.84;51.32;97932.53;6160412;28;124626;-60
2021/01/05 13:07:57;;;;;;;;;37.40;32.00;;;;;9.67;51.28;97925.47;6160033;28;125235;-59
2021/01/05 13:10:58;;;;;;;;;39.00;33.00;;;;;9.62;51.63;97928.06;6149676;28;124869;-59
2021/01/05 13:14:01;;;;;;;;;37.40;31.00;;;;;9.67;51.57;97923.59;6160266;28;126524;-59
2021/01/05 13:17:02;;;;;;;;;36.60;31.60;;;;;9.68;51.46;97919.84;6159669;28;126763;-60
2021/01/05 13:20:05;;;;;;;;;38.40;32.00;;;;;9.78;51.66;97925.41;6126815;28;125129;-60
2021/01/05 13:23:07;;;;;;;;;42.00;34.00;;;;;9.75;51.37;97920.53;6159520;28;126456;-60
2021/01/05 13:26:08;;;;;;;;;35.60;31.00;;;;;9.75;51.34;97922.41;6168817;28;127594;-60
2021/01/05 13:29:14;;;;;;;;;37.40;32.20;;;;;9.80;51.51;97928.69;6166391;28;125082;-59
2021/01/05 13:32:18;;;;;;;;;38.60;32.00;;;;;9.73;51.60;97928.00;6172668;28;126175;-59
2021/01/05 13:35:19;;;;;;;;;37.60;32.00;;;;;9.77;51.74;97923.81;6159272;28;124845;-60
2021/01/05 13:38:21;;;;;;;;;34.75;30.00;;;;;9.75;51.29;97931.28;6159513;28;129311;-59
2021/01/05 13:41:28;;;;;;;;;38.40;32.40;;;;;9.81;51.40;97935.72;6158055;28;125439;-59
2021/01/05 13:44:29;;;;;;;;;36.80;32.40;;;;;9.63;51.49;97938.56;6156142;28;123776;-59
2021/01/05 13:47:31;;;;;;;;;37.80;32.40;;;;;9.70;51.52;97935.75;6159074;28;126220;-59
2021/01/05 13:50:32;;;;;;;;;40.25;33.00;;;;;9.69;51.39;97939.50;6159318;28;125313;-59
2021/01/05 13:53:33;;;;;;;;;36.20;32.00;;;;;9.73;51.54;97938.78;6159301;28;126707;-59
2021/01/05 13:56:35;;;;;;;;;36.50;30.50;;;;;9.79;51.19;97943.22;6159172;28;127684;-59
2021/01/05 13:59:36;;;;;;;;;36.00;31.00;;;;;9.81;51.23;97943.81;6158507;28;126611;-59
2021/01/05 14:02:37;;;;;;;;;41.00;33.00;;;;;9.89;51.24;97962.25;6157787;28;125539;-59
2021/01/05 14:05:39;;;;;;;;;38.00;32.00;;;;;9.83;51.23;97962.38;6158893;28;126034;-59
2021/01/05 14:08:40;;;;;;;;;36.60;32.00;;;;;9.61;51.17;97950.66;6162820;28;127585;-59
2021/01/05 14:11:48;;;;;;;;;34.20;29.60;;;;;9.74;51.26;97961.94;6162015;28;126493;-59
2021/01/05 14:14:50;;;;;;;;;35.00;31.00;;;;;9.53;51.45;97966.09;6158496;28;126365;-59
2021/01/05 14:17:51;;;;;;;;;40.20;32.20;;;;;9.39;51.80;97966.59;6157376;28;124697;-58